sensor_id;sensor_type;location;lat;lon;timestamp;P1;durP1;ratioP1;P2;durP2;ratioP2
36597;SDS011;22607;49.550;11.940;2023-03-29T00:02:23;11.77;;;2.70;;
36597;SDS011;22607;49.550;11.940;2023-03-29T00:04:56;6.75;;;2.60;;
36597;SDS011;22607;49.550;11.940;2023-03-29T00:07:23;7.85;;;2.10;;
36597;SDS011;22607;49.550;11.940;2023-03-29T00:09:51;8.85;;;2.33;;
36597;SDS011;22607;49.550;11.940;2023-03-29T00:12:18;7.82;;;1.80;;
36597;SDS011;22607;49.550;11.940;2023-03-29T00:14:44;9.10;;;1.80;;
36597;SDS011;22607;49.550;11.940;2023-03-29T00:17:11;7.25;;;1.83;;
36597;SDS011;22607;49.550;11.940;2023-03-29T00:19:38;8.65;;;2.53;;
36597;SDS011;22607;49.550;11.940;2023-03-29T00:22:04;9.43;;;2.47;;
36597;SDS011;22607;49.550;11.940;2023-03-29T00:24:31;8.75;;;2.50;;
36597;SDS011;22607;49.550;11.940;2023-03-29T00:26:58;9.60;;;2.47;;
36597;SDS011;22607;49.550;11.940;2023-03-29T00:29:24;11.05;;;2.78;;
36597;SDS011;22607;49.550;11.940;2023-03-29T00:31:51;8.48;;;2.38;;
36597;SDS011;22607;49.550;11.940;2023-03-29T00:34:19;11.07;;;2.58;;
36597;SDS011;22607;49.550;11.940;2023-03-29T00:36:47;8.93;;;2.63;;
36597;SDS011;22607;49.550;11.940;2023-03-29T00:39:18;9.73;;;2.60;;
36597;SDS011;22607;49.550;11.940;2023-03-29T00:41:46;7.93;;;2.35;;
36597;SDS011;22607;49.550;11.940;2023-03-29T00:47:39;7.53;;;2.33;;
36597;SDS011;22607;49.550;11.940;2023-03-29T00:50:23;9.65;;;2.20;;
36597;SDS011;22607;49.550;11.940;2023-03-29T00:55:36;10.23;;;2.53;;
36597;SDS011;22607;49.550;11.940;2023-03-29T00:58:08;7.68;;;2.00;;
36597;SDS011;22607;49.550;11.940;2023-03-29T01:00:43;6.75;;;2.55;;
36597;SDS011;22607;49.550;11.940;2023-03-29T01:03:17;6.95;;;1.80;;
36597;SDS011;22607;49.550;11.940;2023-03-29T01:05:50;8.27;;;2.22;;
36597;SDS011;22607;49.550;11.940;2023-03-29T01:08:25;10.75;;;3.20;;
36597;SDS011;22607;49.550;11.940;2023-03-29T01:10:59;8.10;;;2.40;;
36597;SDS011;22607;49.550;11.940;2023-03-29T01:13:38;9.10;;;2.30;;
36597;SDS011;22607;49.550;11.940;2023-03-29T01:16:09;7.13;;;2.10;;
36597;SDS011;22607;49.550;11.940;2023-03-29T01:18:37;6.63;;;2.15;;
36597;SDS011;22607;49.550;11.940;2023-03-29T01:24:03;7.53;;;2.42;;
36597;SDS011;22607;49.550;11.940;2023-03-29T01:26:54;7.13;;;2.03;;
36597;SDS011;22607;49.550;11.940;2023-03-29T01:29:31;7.95;;;2.22;;
36597;SDS011;22607;49.550;11.940;2023-03-29T01:32:04;6.88;;;1.95;;
36597;SDS011;22607;49.550;11.940;2023-03-29T01:37:35;7.53;;;2.30;;
36597;SDS011;22607;49.550;11.940;2023-03-29T01:40:03;7.47;;;2.17;;
36597;SDS011;22607;49.550;11.940;2023-03-29T01:42:35;8.18;;;2.30;;
36597;SDS011;22607;49.550;11.940;2023-03-29T01:50:20;9.10;;;2.53;;
36597;SDS011;22607;49.550;11.940;2023-03-29T01:53:04;8.75;;;2.55;;
36597;SDS011;22607;49.550;11.940;2023-03-29T01:55:36;8.27;;;2.00;;
36597;SDS011;22607;49.550;11.940;2023-03-29T01:58:06;9.73;;;2.97;;
36597;SDS011;22607;49.550;11.940;2023-03-29T02:00:37;6.50;;;2.07;;
36597;SDS011;22607;49.550;11.940;2023-03-29T02:03:07;9.40;;;2.03;;
36597;SDS011;22607;49.550;11.940;2023-03-29T02:05:35;8.98;;;2.97;;
36597;SDS011;22607;49.550;11.940;2023-03-29T02:08:04;6.50;;;2.22;;
36597;SDS011;22607;49.550;11.940;2023-03-29T02:10:34;7.45;;;2.20;;
36597;SDS011;22607;49.550;11.940;2023-03-29T02:13:02;8.70;;;2.47;;
36597;SDS011;22607;49.550;11.940;2023-03-29T02:15:29;8.13;;;2.20;;
36597;SDS011;22607;49.550;11.940;2023-03-29T02:17:56;8.52;;;2.30;;
36597;SDS011;22607;49.550;11.940;2023-03-29T02:20:25;9.30;;;1.95;;
36597;SDS011;22607;49.550;11.940;2023-03-29T02:22:57;6.68;;;2.05;;
36597;SDS011;22607;49.550;11.940;2023-03-29T02:25:35;7.53;;;2.30;;
36597;SDS011;22607;49.550;11.940;2023-03-29T02:28:03;8.02;;;2.60;;
36597;SDS011;22607;49.550;11.940;2023-03-29T02:30:37;9.32;;;2.10;;
36597;SDS011;22607;49.550;11.940;2023-03-29T02:33:18;6.03;;;1.80;;
36597;SDS011;22607;49.550;11.940;2023-03-29T02:38:19;6.50;;;1.83;;
36597;SDS011;22607;49.550;11.940;2023-03-29T02:40:47;7.80;;;1.98;;
36597;SDS011;22607;49.550;11.940;2023-03-29T02:43:13;5.40;;;1.75;;
36597;SDS011;22607;49.550;11.940;2023-03-29T02:45:42;5.75;;;1.92;;
36597;SDS011;22607;49.550;11.940;2023-03-29T02:48:10;6.63;;;1.98;;
36597;SDS011;22607;49.550;11.940;2023-03-29T02:50:42;6.63;;;1.90;;
36597;SDS011;22607;49.550;11.940;2023-03-29T02:53:14;9.73;;;2.55;;
36597;SDS011;22607;49.550;11.940;2023-03-29T02:55:44;7.70;;;2.17;;
36597;SDS011;22607;49.550;11.940;2023-03-29T02:58:12;9.10;;;2.38;;
36597;SDS011;22607;49.550;11.940;2023-03-29T03:00:44;9.82;;;2.28;;
36597;SDS011;22607;49.550;11.940;2023-03-29T03:03:13;7.50;;;2.28;;
36597;SDS011;22607;49.550;11.940;2023-03-29T03:05:43;6.40;;;2.58;;
36597;SDS011;22607;49.550;11.940;2023-03-29T03:08:09;7.72;;;2.22;;
36597;SDS011;22607;49.550;11.940;2023-03-29T03:10:36;8.02;;;2.17;;
36597;SDS011;22607;49.550;11.940;2023-03-29T03:13:04;7.00;;;2.00;;
36597;SDS011;22607;49.550;11.940;2023-03-29T03:15:31;7.88;;;2.45;;
36597;SDS011;22607;49.550;11.940;2023-03-29T03:18:01;9.68;;;2.55;;
36597;SDS011;22607;49.550;11.940;2023-03-29T03:20:31;11.68;;;3.08;;
36597;SDS011;22607;49.550;11.940;2023-03-29T03:22:58;9.00;;;2.53;;
36597;SDS011;22607;49.550;11.940;2023-03-29T03:25:26;7.78;;;2.10;;
36597;SDS011;22607;49.550;11.940;2023-03-29T03:27:53;8.60;;;2.90;;
36597;SDS011;22607;49.550;11.940;2023-03-29T03:30:21;8.98;;;2.90;;
36597;SDS011;22607;49.550;11.940;2023-03-29T03:32:47;8.70;;;2.63;;
36597;SDS011;22607;49.550;11.940;2023-03-29T03:35:15;7.45;;;2.55;;
36597;SDS011;22607;49.550;11.940;2023-03-29T03:37:41;8.63;;;3.25;;
36597;SDS011;22607;49.550;11.940;2023-03-29T03:40:08;9.05;;;3.15;;
36597;SDS011;22607;49.550;11.940;2023-03-29T03:42:37;9.52;;;2.70;;
36597;SDS011;22607;49.550;11.940;2023-03-29T03:45:04;9.95;;;2.88;;
36597;SDS011;22607;49.550;11.940;2023-03-29T03:47:33;9.98;;;2.80;;
36597;SDS011;22607;49.550;11.940;2023-03-29T03:50:03;9.63;;;3.33;;
36597;SDS011;22607;49.550;11.940;2023-03-29T03:52:30;8.05;;;2.47;;
36597;SDS011;22607;49.550;11.940;2023-03-29T03:54:57;9.80;;;2.80;;
36597;SDS011;22607;49.550;11.940;2023-03-29T03:57:23;8.75;;;2.47;;
36597;SDS011;22607;49.550;11.940;2023-03-29T03:59:50;9.32;;;2.95;;
36597;SDS011;22607;49.550;11.940;2023-03-29T04:02:17;7.35;;;2.47;;
36597;SDS011;22607;49.550;11.940;2023-03-29T04:04:45;10.65;;;3.13;;
36597;SDS011;22607;49.550;11.940;2023-03-29T04:07:12;10.07;;;2.67;;
36597;SDS011;22607;49.550;11.940;2023-03-29T04:09:39;10.52;;;2.90;;
36597;SDS011;22607;49.550;11.940;2023-03-29T04:12:06;10.13;;;3.30;;
36597;SDS011;22607;49.550;11.940;2023-03-29T04:14:32;8.52;;;2.97;;
36597;SDS011;22607;49.550;11.940;2023-03-29T04:16:59;9.70;;;3.50;;
36597;SDS011;22607;49.550;11.940;2023-03-29T04:19:26;10.45;;;3.85;;
36597;SDS011;22607;49.550;11.940;2023-03-29T04:21:53;9.75;;;3.30;;
36597;SDS011;22607;49.550;11.940;2023-03-29T04:24:21;11.20;;;3.50;;
36597;SDS011;22607;49.550;11.940;2023-03-29T04:26:48;9.43;;;2.88;;
36597;SDS011;22607;49.550;11.940;2023-03-29T04:29:14;8.80;;;3.22;;
36597;SDS011;22607;49.550;11.940;2023-03-29T04:31:41;8.07;;;2.92;;
36597;SDS011;22607;49.550;11.940;2023-03-29T04:34:07;10.38;;;3.50;;
36597;SDS011;22607;49.550;11.940;2023-03-29T04:36:34;11.00;;;3.30;;
36597;SDS011;22607;49.550;11.940;2023-03-29T04:39:00;9.18;;;3.05;;
36597;SDS011;22607;49.550;11.940;2023-03-29T04:41:27;9.80;;;3.33;;
36597;SDS011;22607;49.550;11.940;2023-03-29T04:43:54;8.85;;;3.47;;
36597;SDS011;22607;49.550;11.940;2023-03-29T04:46:21;9.00;;;3.85;;
36597;SDS011;22607;49.550;11.940;2023-03-29T04:48:52;9.85;;;3.40;;
36597;SDS011;22607;49.550;11.940;2023-03-29T04:51:19;9.57;;;2.85;;
36597;SDS011;22607;49.550;11.940;2023-03-29T04:53:48;11.68;;;4.07;;
36597;SDS011;22607;49.550;11.940;2023-03-29T04:56:15;10.80;;;3.75;;
36597;SDS011;22607;49.550;11.940;2023-03-29T04:58:42;12.02;;;3.78;;
36597;SDS011;22607;49.550;11.940;2023-03-29T05:01:09;9.50;;;3.53;;
36597;SDS011;22607;49.550;11.940;2023-03-29T05:03:36;10.70;;;4.32;;
36597;SDS011;22607;49.550;11.940;2023-03-29T05:06:03;9.02;;;3.58;;
36597;SDS011;22607;49.550;11.940;2023-03-29T05:08:32;9.10;;;3.30;;
36597;SDS011;22607;49.550;11.940;2023-03-29T05:11:00;8.90;;;3.17;;
36597;SDS011;22607;49.550;11.940;2023-03-29T05:13:27;9.32;;;3.65;;
36597;SDS011;22607;49.550;11.940;2023-03-29T05:15:54;10.20;;;3.63;;
36597;SDS011;22607;49.550;11.940;2023-03-29T05:18:22;10.70;;;3.38;;
36597;SDS011;22607;49.550;11.940;2023-03-29T05:20:49;9.63;;;3.30;;
36597;SDS011;22607;49.550;11.940;2023-03-29T05:23:18;12.50;;;3.95;;
36597;SDS011;22607;49.550;11.940;2023-03-29T05:25:48;11.60;;;4.82;;
36597;SDS011;22607;49.550;11.940;2023-03-29T05:28:16;10.25;;;3.90;;
36597;SDS011;22607;49.550;11.940;2023-03-29T05:30:43;10.27;;;4.18;;
36597;SDS011;22607;49.550;11.940;2023-03-29T05:33:10;9.05;;;4.20;;
36597;SDS011;22607;49.550;11.940;2023-03-29T05:35:37;13.23;;;4.40;;
36597;SDS011;22607;49.550;11.940;2023-03-29T05:38:04;9.52;;;3.63;;
36597;SDS011;22607;49.550;11.940;2023-03-29T05:40:31;11.38;;;4.15;;
36597;SDS011;22607;49.550;11.940;2023-03-29T05:42:57;11.32;;;4.50;;
36597;SDS011;22607;49.550;11.940;2023-03-29T05:45:24;8.52;;;3.80;;
36597;SDS011;22607;49.550;11.940;2023-03-29T05:47:53;11.38;;;4.65;;
36597;SDS011;22607;49.550;11.940;2023-03-29T05:50:20;12.75;;;4.90;;
36597;SDS011;22607;49.550;11.940;2023-03-29T05:52:47;12.00;;;5.18;;
36597;SDS011;22607;49.550;11.940;2023-03-29T05:55:13;13.60;;;5.35;;
36597;SDS011;22607;49.550;11.940;2023-03-29T05:57:40;11.80;;;5.28;;
36597;SDS011;22607;49.550;11.940;2023-03-29T06:00:07;11.82;;;4.78;;
36597;SDS011;22607;49.550;11.940;2023-03-29T06:02:50;11.98;;;5.18;;
36597;SDS011;22607;49.550;11.940;2023-03-29T06:05:18;11.85;;;4.57;;
36597;SDS011;22607;49.550;11.940;2023-03-29T06:07:45;11.35;;;4.25;;
36597;SDS011;22607;49.550;11.940;2023-03-29T06:10:14;15.70;;;5.80;;
36597;SDS011;22607;49.550;11.940;2023-03-29T06:12:41;11.63;;;5.15;;
36597;SDS011;22607;49.550;11.940;2023-03-29T06:15:07;10.73;;;5.05;;
36597;SDS011;22607;49.550;11.940;2023-03-29T06:17:35;13.02;;;5.55;;
36597;SDS011;22607;49.550;11.940;2023-03-29T06:20:02;10.80;;;5.30;;
36597;SDS011;22607;49.550;11.940;2023-03-29T06:22:33;13.07;;;5.63;;
36597;SDS011;22607;49.550;11.940;2023-03-29T06:25:00;11.32;;;4.88;;
36597;SDS011;22607;49.550;11.940;2023-03-29T06:27:27;12.35;;;6.22;;
36597;SDS011;22607;49.550;11.940;2023-03-29T06:29:54;11.85;;;5.18;;
36597;SDS011;22607;49.550;11.940;2023-03-29T06:32:20;13.05;;;6.50;;
36597;SDS011;22607;49.550;11.940;2023-03-29T06:34:47;13.57;;;5.75;;
36597;SDS011;22607;49.550;11.940;2023-03-29T06:37:13;13.52;;;6.85;;
36597;SDS011;22607;49.550;11.940;2023-03-29T06:39:40;15.07;;;6.72;;
36597;SDS011;22607;49.550;11.940;2023-03-29T06:42:06;13.35;;;6.70;;
36597;SDS011;22607;49.550;11.940;2023-03-29T06:44:46;14.68;;;6.85;;
36597;SDS011;22607;49.550;11.940;2023-03-29T06:47:13;13.95;;;6.75;;
36597;SDS011;22607;49.550;11.940;2023-03-29T06:49:39;14.55;;;7.70;;
36597;SDS011;22607;49.550;11.940;2023-03-29T06:52:06;15.82;;;7.53;;
36597;SDS011;22607;49.550;11.940;2023-03-29T06:54:32;13.15;;;6.63;;
36597;SDS011;22607;49.550;11.940;2023-03-29T06:57:00;15.00;;;7.05;;
36597;SDS011;22607;49.550;11.940;2023-03-29T06:59:27;12.75;;;7.25;;
36597;SDS011;22607;49.550;11.940;2023-03-29T07:01:55;15.27;;;7.10;;
36597;SDS011;22607;49.550;11.940;2023-03-29T07:04:22;13.98;;;6.70;;
36597;SDS011;22607;49.550;11.940;2023-03-29T07:06:51;15.38;;;6.88;;
36597;SDS011;22607;49.550;11.940;2023-03-29T07:09:27;12.50;;;5.60;;
36597;SDS011;22607;49.550;11.940;2023-03-29T07:11:55;12.55;;;6.05;;
36597;SDS011;22607;49.550;11.940;2023-03-29T07:14:23;12.82;;;6.90;;
36597;SDS011;22607;49.550;11.940;2023-03-29T07:16:56;12.40;;;5.90;;
36597;SDS011;22607;49.550;11.940;2023-03-29T07:19:23;12.13;;;5.40;;
36597;SDS011;22607;49.550;11.940;2023-03-29T07:21:52;15.50;;;6.05;;
36597;SDS011;22607;49.550;11.940;2023-03-29T07:24:19;13.70;;;6.93;;
36597;SDS011;22607;49.550;11.940;2023-03-29T07:26:46;18.50;;;6.00;;
36597;SDS011;22607;49.550;11.940;2023-03-29T07:29:29;12.98;;;5.90;;
36597;SDS011;22607;49.550;11.940;2023-03-29T07:31:56;11.35;;;5.80;;
36597;SDS011;22607;49.550;11.940;2023-03-29T07:34:22;11.75;;;5.60;;
36597;SDS011;22607;49.550;11.940;2023-03-29T07:36:49;12.10;;;5.32;;
36597;SDS011;22607;49.550;11.940;2023-03-29T07:39:16;12.48;;;5.60;;
36597;SDS011;22607;49.550;11.940;2023-03-29T07:41:43;12.77;;;5.68;;
36597;SDS011;22607;49.550;11.940;2023-03-29T07:44:09;12.93;;;5.22;;
36597;SDS011;22607;49.550;11.940;2023-03-29T07:46:36;10.73;;;5.03;;
36597;SDS011;22607;49.550;11.940;2023-03-29T07:49:03;11.50;;;5.68;;
36597;SDS011;22607;49.550;11.940;2023-03-29T07:51:29;11.13;;;5.25;;
36597;SDS011;22607;49.550;11.940;2023-03-29T07:53:56;10.27;;;4.53;;
36597;SDS011;22607;49.550;11.940;2023-03-29T07:56:23;12.50;;;5.65;;
36597;SDS011;22607;49.550;11.940;2023-03-29T07:58:50;13.80;;;5.82;;
36597;SDS011;22607;49.550;11.940;2023-03-29T08:01:17;12.63;;;6.07;;
36597;SDS011;22607;49.550;11.940;2023-03-29T08:03:45;12.90;;;5.03;;
36597;SDS011;22607;49.550;11.940;2023-03-29T08:06:11;10.90;;;5.15;;
36597;SDS011;22607;49.550;11.940;2023-03-29T08:08:38;13.52;;;4.72;;
36597;SDS011;22607;49.550;11.940;2023-03-29T08:11:04;11.20;;;5.32;;
36597;SDS011;22607;49.550;11.940;2023-03-29T08:13:34;10.50;;;5.20;;
36597;SDS011;22607;49.550;11.940;2023-03-29T08:16:00;9.20;;;4.10;;
36597;SDS011;22607;49.550;11.940;2023-03-29T08:18:27;12.65;;;5.07;;
36597;SDS011;22607;49.550;11.940;2023-03-29T08:20:53;11.77;;;5.20;;
36597;SDS011;22607;49.550;11.940;2023-03-29T08:23:20;12.45;;;4.82;;
36597;SDS011;22607;49.550;11.940;2023-03-29T08:25:46;10.75;;;4.60;;
36597;SDS011;22607;49.550;11.940;2023-03-29T08:28:13;13.63;;;5.53;;
36597;SDS011;22607;49.550;11.940;2023-03-29T08:30:39;13.00;;;5.03;;
36597;SDS011;22607;49.550;11.940;2023-03-29T08:33:06;9.45;;;3.45;;
36597;SDS011;22607;49.550;11.940;2023-03-29T08:35:33;10.60;;;4.38;;
36597;SDS011;22607;49.550;11.940;2023-03-29T08:37:59;9.18;;;3.60;;
36597;SDS011;22607;49.550;11.940;2023-03-29T08:40:27;11.90;;;4.45;;
36597;SDS011;22607;49.550;11.940;2023-03-29T08:48:26;12.15;;;5.15;;
36597;SDS011;22607;49.550;11.940;2023-03-29T08:50:58;12.80;;;4.82;;
36597;SDS011;22607;49.550;11.940;2023-03-29T08:53:32;9.65;;;4.32;;
36597;SDS011;22607;49.550;11.940;2023-03-29T08:56:06;10.50;;;4.68;;
36597;SDS011;22607;49.550;11.940;2023-03-29T08:58:36;10.77;;;4.10;;
36597;SDS011;22607;49.550;11.940;2023-03-29T09:01:04;9.43;;;3.95;;
36597;SDS011;22607;49.550;11.940;2023-03-29T09:03:37;10.27;;;3.72;;
36597;SDS011;22607;49.550;11.940;2023-03-29T09:06:09;9.35;;;4.35;;
36597;SDS011;22607;49.550;11.940;2023-03-29T09:08:38;8.70;;;3.95;;
36597;SDS011;22607;49.550;11.940;2023-03-29T09:11:24;10.38;;;4.28;;
36597;SDS011;22607;49.550;11.940;2023-03-29T09:20:10;9.32;;;3.70;;
36597;SDS011;22607;49.550;11.940;2023-03-29T09:28:47;7.55;;;2.83;;
36597;SDS011;22607;49.550;11.940;2023-03-29T09:31:35;7.80;;;3.13;;
36597;SDS011;22607;49.550;11.940;2023-03-29T09:34:18;9.20;;;3.38;;
36597;SDS011;22607;49.550;11.940;2023-03-29T09:39:14;8.10;;;3.40;;
36597;SDS011;22607;49.550;11.940;2023-03-29T09:41:46;7.95;;;3.55;;
36597;SDS011;22607;49.550;11.940;2023-03-29T09:44:19;7.90;;;2.92;;
36597;SDS011;22607;49.550;11.940;2023-03-29T09:47:06;7.97;;;2.90;;
36597;SDS011;22607;49.550;11.940;2023-03-29T09:49:37;8.57;;;3.40;;
36597;SDS011;22607;49.550;11.940;2023-03-29T09:52:12;7.60;;;2.90;;
36597;SDS011;22607;49.550;11.940;2023-03-29T09:54:42;8.25;;;3.30;;
36597;SDS011;22607;49.550;11.940;2023-03-29T09:57:10;7.50;;;3.15;;
36597;SDS011;22607;49.550;11.940;2023-03-29T09:59:39;7.97;;;3.10;;
36597;SDS011;22607;49.550;11.940;2023-03-29T10:02:07;7.75;;;3.25;;
36597;SDS011;22607;49.550;11.940;2023-03-29T10:04:35;8.43;;;3.10;;
36597;SDS011;22607;49.550;11.940;2023-03-29T10:07:02;9.45;;;3.00;;
36597;SDS011;22607;49.550;11.940;2023-03-29T10:09:30;8.05;;;3.35;;
36597;SDS011;22607;49.550;11.940;2023-03-29T10:11:58;10.77;;;3.45;;
36597;SDS011;22607;49.550;11.940;2023-03-29T10:14:32;7.88;;;3.17;;
36597;SDS011;22607;49.550;11.940;2023-03-29T10:17:10;7.20;;;2.90;;
36597;SDS011;22607;49.550;11.940;2023-03-29T10:19:48;9.50;;;3.15;;
36597;SDS011;22607;49.550;11.940;2023-03-29T10:22:17;6.97;;;2.50;;
36597;SDS011;22607;49.550;11.940;2023-03-29T10:24:48;7.93;;;3.20;;
36597;SDS011;22607;49.550;11.940;2023-03-29T10:27:24;7.47;;;2.97;;
36597;SDS011;22607;49.550;11.940;2023-03-29T10:29:53;7.20;;;3.25;;
36597;SDS011;22607;49.550;11.940;2023-03-29T10:32:24;8.50;;;3.10;;
36597;SDS011;22607;49.550;11.940;2023-03-29T10:34:58;7.95;;;3.03;;
36597;SDS011;22607;49.550;11.940;2023-03-29T10:37:32;7.57;;;2.72;;
36597;SDS011;22607;49.550;11.940;2023-03-29T10:39:58;8.35;;;3.05;;
36597;SDS011;22607;49.550;11.940;2023-03-29T10:42:25;7.70;;;3.15;;
36597;SDS011;22607;49.550;11.940;2023-03-29T10:44:56;7.53;;;3.03;;
36597;SDS011;22607;49.550;11.940;2023-03-29T10:47:24;8.18;;;3.30;;
36597;SDS011;22607;49.550;11.940;2023-03-29T10:52:28;9.02;;;3.13;;
36597;SDS011;22607;49.550;11.940;2023-03-29T10:54:54;7.40;;;2.65;;
36597;SDS011;22607;49.550;11.940;2023-03-29T10:58:26;9.05;;;3.10;;
36597;SDS011;22607;49.550;11.940;2023-03-29T11:08:35;7.10;;;2.55;;
36597;SDS011;22607;49.550;11.940;2023-03-29T11:14:51;7.57;;;2.80;;
36597;SDS011;22607;49.550;11.940;2023-03-29T11:18:14;7.47;;;2.55;;
36597;SDS011;22607;49.550;11.940;2023-03-29T11:20:26;6.97;;;2.33;;
36597;SDS011;22607;49.550;11.940;2023-03-29T11:22:58;7.22;;;2.65;;
36597;SDS011;22607;49.550;11.940;2023-03-29T11:28:28;7.72;;;2.40;;
36597;SDS011;22607;49.550;11.940;2023-03-29T11:31:31;6.97;;;2.45;;
36597;SDS011;22607;49.550;11.940;2023-03-29T11:36:58;6.75;;;2.20;;
36597;SDS011;22607;49.550;11.940;2023-03-29T11:42:20;6.82;;;2.10;;
36597;SDS011;22607;49.550;11.940;2023-03-29T11:44:52;7.00;;;2.30;;
36597;SDS011;22607;49.550;11.940;2023-03-29T11:47:23;5.43;;;1.80;;
36597;SDS011;22607;49.550;11.940;2023-03-29T11:49:59;5.57;;;1.75;;
36597;SDS011;22607;49.550;11.940;2023-03-29T11:52:34;7.68;;;1.90;;
36597;SDS011;22607;49.550;11.940;2023-03-29T11:55:21;5.50;;;1.67;;
36597;SDS011;22607;49.550;11.940;2023-03-29T12:03:29;5.20;;;1.90;;
36597;SDS011;22607;49.550;11.940;2023-03-29T12:06:00;6.07;;;1.80;;
36597;SDS011;22607;49.550;11.940;2023-03-29T12:08:37;5.93;;;1.83;;
36597;SDS011;22607;49.550;11.940;2023-03-29T12:13:49;7.88;;;2.00;;
36597;SDS011;22607;49.550;11.940;2023-03-29T12:16:26;6.82;;;2.80;;
36597;SDS011;22607;49.550;11.940;2023-03-29T12:19:11;8.75;;;2.13;;
36597;SDS011;22607;49.550;11.940;2023-03-29T12:21:43;6.18;;;1.85;;
36597;SDS011;22607;49.550;11.940;2023-03-29T12:24:16;5.63;;;1.50;;
36597;SDS011;22607;49.550;11.940;2023-03-29T12:32:31;9.02;;;2.10;;
36597;SDS011;22607;49.550;11.940;2023-03-29T12:35:26;5.68;;;1.60;;
36597;SDS011;22607;49.550;11.940;2023-03-29T12:40:40;6.50;;;1.70;;
36597;SDS011;22607;49.550;11.940;2023-03-29T12:46:14;6.07;;;1.83;;
36597;SDS011;22607;49.550;11.940;2023-03-29T12:48:44;8.32;;;2.35;;
36597;SDS011;22607;49.550;11.940;2023-03-29T12:51:15;5.68;;;1.70;;
36597;SDS011;22607;49.550;11.940;2023-03-29T12:53:45;7.93;;;2.00;;
36597;SDS011;22607;49.550;11.940;2023-03-29T12:56:33;5.20;;;1.33;;
36597;SDS011;22607;49.550;11.940;2023-03-29T13:04:58;5.50;;;1.55;;
36597;SDS011;22607;49.550;11.940;2023-03-29T13:07:31;5.75;;;1.42;;
36597;SDS011;22607;49.550;11.940;2023-03-29T13:13:06;5.32;;;1.40;;
36597;SDS011;22607;49.550;11.940;2023-03-29T13:15:37;6.53;;;1.58;;
36597;SDS011;22607;49.550;11.940;2023-03-29T13:18:29;6.10;;;1.67;;
36597;SDS011;22607;49.550;11.940;2023-03-29T13:21:03;5.10;;;1.45;;
36597;SDS011;22607;49.550;11.940;2023-03-29T13:29:29;5.68;;;1.42;;
36597;SDS011;22607;49.550;11.940;2023-03-29T13:34:57;5.45;;;1.50;;
36597;SDS011;22607;49.550;11.940;2023-03-29T13:42:58;5.45;;;1.38;;
36597;SDS011;22607;49.550;11.940;2023-03-29T13:45:36;4.53;;;1.30;;
36597;SDS011;22607;49.550;11.940;2023-03-29T13:50:55;5.32;;;1.27;;
36597;SDS011;22607;49.550;11.940;2023-03-29T13:55:56;4.22;;;1.30;;
36597;SDS011;22607;49.550;11.940;2023-03-29T14:03:56;5.20;;;1.27;;
36597;SDS011;22607;49.550;11.940;2023-03-29T14:06:25;3.83;;;1.00;;
36597;SDS011;22607;49.550;11.940;2023-03-29T14:08:55;3.88;;;1.23;;
36597;SDS011;22607;49.550;11.940;2023-03-29T14:11:25;5.03;;;1.40;;
36597;SDS011;22607;49.550;11.940;2023-03-29T14:13:57;5.40;;;1.67;;
36597;SDS011;22607;49.550;11.940;2023-03-29T14:16:33;5.28;;;1.65;;
36597;SDS011;22607;49.550;11.940;2023-03-29T14:19:28;6.20;;;1.77;;
36597;SDS011;22607;49.550;11.940;2023-03-29T14:22:06;7.38;;;2.00;;
36597;SDS011;22607;49.550;11.940;2023-03-29T14:24:40;5.28;;;1.60;;
36597;SDS011;22607;49.550;11.940;2023-03-29T14:27:14;11.45;;;2.13;;
36597;SDS011;22607;49.550;11.940;2023-03-29T14:29:43;8.73;;;1.80;;
36597;SDS011;22607;49.550;11.940;2023-03-29T14:32:11;6.22;;;1.92;;
36597;SDS011;22607;49.550;11.940;2023-03-29T14:34:47;12.80;;;2.63;;
36597;SDS011;22607;49.550;11.940;2023-03-29T14:37:17;10.88;;;2.92;;
36597;SDS011;22607;49.550;11.940;2023-03-29T14:42:16;7.10;;;1.75;;
36597;SDS011;22607;49.550;11.940;2023-03-29T14:44:48;7.00;;;1.92;;
36597;SDS011;22607;49.550;11.940;2023-03-29T14:47:22;7.65;;;1.80;;
36597;SDS011;22607;49.550;11.940;2023-03-29T14:49:52;5.63;;;1.80;;
36597;SDS011;22607;49.550;11.940;2023-03-29T14:52:22;5.60;;;1.73;;
36597;SDS011;22607;49.550;11.940;2023-03-29T14:54:50;6.13;;;1.60;;
36597;SDS011;22607;49.550;11.940;2023-03-29T14:57:21;5.70;;;1.70;;
36597;SDS011;22607;49.550;11.940;2023-03-29T14:59:54;8.75;;;1.80;;
36597;SDS011;22607;49.550;11.940;2023-03-29T15:04:58;6.05;;;1.65;;
36597;SDS011;22607;49.550;11.940;2023-03-29T15:07:28;5.47;;;1.40;;
36597;SDS011;22607;49.550;11.940;2023-03-29T15:09:57;6.55;;;1.63;;
36597;SDS011;22607;49.550;11.940;2023-03-29T15:12:28;5.97;;;1.60;;
36597;SDS011;22607;49.550;11.940;2023-03-29T15:14:55;5.73;;;1.70;;
36597;SDS011;22607;49.550;11.940;2023-03-29T15:20:35;7.28;;;1.80;;
36597;SDS011;22607;49.550;11.940;2023-03-29T15:26:14;7.15;;;2.47;;
36597;SDS011;22607;49.550;11.940;2023-03-29T15:28:44;2.65;;;1.00;;
36597;SDS011;22607;49.550;11.940;2023-03-29T15:31:26;4.95;;;1.50;;
36597;SDS011;22607;49.550;11.940;2023-03-29T15:34:00;6.80;;;1.45;;
36597;SDS011;22607;49.550;11.940;2023-03-29T15:36:33;5.32;;;1.58;;
36597;SDS011;22607;49.550;11.940;2023-03-29T15:39:03;6.93;;;1.80;;
36597;SDS011;22607;49.550;11.940;2023-03-29T15:41:30;6.22;;;1.83;;
36597;SDS011;22607;49.550;11.940;2023-03-29T15:43:57;6.07;;;1.50;;
36597;SDS011;22607;49.550;11.940;2023-03-29T15:46:23;5.65;;;1.48;;
36597;SDS011;22607;49.550;11.940;2023-03-29T15:48:50;7.35;;;1.40;;
36597;SDS011;22607;49.550;11.940;2023-03-29T15:51:16;7.50;;;1.55;;
36597;SDS011;22607;49.550;11.940;2023-03-29T15:53:43;5.90;;;1.30;;
36597;SDS011;22607;49.550;11.940;2023-03-29T15:56:11;4.75;;;1.27;;
36597;SDS011;22607;49.550;11.940;2023-03-29T16:01:21;3.97;;;1.13;;
36597;SDS011;22607;49.550;11.940;2023-03-29T16:04:05;5.95;;;1.67;;
36597;SDS011;22607;49.550;11.940;2023-03-29T16:06:44;5.10;;;1.20;;
36597;SDS011;22607;49.550;11.940;2023-03-29T16:09:17;4.30;;;1.45;;
36597;SDS011;22607;49.550;11.940;2023-03-29T16:11:44;4.38;;;1.30;;
36597;SDS011;22607;49.550;11.940;2023-03-29T16:14:19;4.97;;;1.45;;
36597;SDS011;22607;49.550;11.940;2023-03-29T16:16:48;5.38;;;1.40;;
36597;SDS011;22607;49.550;11.940;2023-03-29T16:19:16;3.83;;;1.08;;
36597;SDS011;22607;49.550;11.940;2023-03-29T16:21:43;6.18;;;1.30;;
36597;SDS011;22607;49.550;11.940;2023-03-29T16:24:14;5.50;;;1.50;;
36597;SDS011;22607;49.550;11.940;2023-03-29T16:26:42;6.45;;;1.30;;
36597;SDS011;22607;49.550;11.940;2023-03-29T16:29:09;5.05;;;1.20;;
36597;SDS011;22607;49.550;11.940;2023-03-29T16:31:35;8.48;;;2.22;;
36597;SDS011;22607;49.550;11.940;2023-03-29T16:34:03;6.18;;;1.73;;
36597;SDS011;22607;49.550;11.940;2023-03-29T16:36:30;7.95;;;1.90;;
36597;SDS011;22607;49.550;11.940;2023-03-29T16:38:59;6.70;;;1.83;;
36597;SDS011;22607;49.550;11.940;2023-03-29T16:41:25;6.68;;;1.67;;
36597;SDS011;22607;49.550;11.940;2023-03-29T16:43:52;5.75;;;1.80;;
36597;SDS011;22607;49.550;11.940;2023-03-29T16:46:19;5.50;;;1.65;;
36597;SDS011;22607;49.550;11.940;2023-03-29T16:48:46;6.35;;;1.77;;
36597;SDS011;22607;49.550;11.940;2023-03-29T16:51:14;6.80;;;1.90;;
36597;SDS011;22607;49.550;11.940;2023-03-29T16:53:40;7.13;;;1.92;;
36597;SDS011;22607;49.550;11.940;2023-03-29T16:56:07;6.38;;;1.60;;
36597;SDS011;22607;49.550;11.940;2023-03-29T16:58:34;7.70;;;2.10;;
36597;SDS011;22607;49.550;11.940;2023-03-29T17:01:10;6.72;;;1.98;;